Latest Weather Observations for Evans Head

IDN60801

Issued at 1:34 pm EDT Wednesday 4 March 2015 (issued every 30 minutes, with the page automatically refreshed every 10 minutes)

About weather observations | Map of weather stations | Latest weather observations for NSW | Other Formats
Station Details ID: 058212 Name: EVANS HEAD RAAF BOMBING RANGE AWS Lat: -29.18 Lon: 153.40 Height: 62.5 m
Data from the previous 72 hours. | See also: Recent months at Evans Head
Date/Time
EDT
Temp
°C
App
Temp
°C
Dew
Point
Rel
Hum
%
Delta-T
°C
Wind Press
QNH
hPa
Press
MSL
hPa
Rain
since 9 am
mm
Dir
 
Spd
km/h
Gust
km/h
Spd
kts
Gust
kts
04/01:30pm 29.6 30.8 21.5 61 5.4 NNE 17 24 9 13 1012.7 1012.5 0.0
04/01:00pm 29.8 32.9 22.8 66 4.8 ENE 11 20 6 11 1013.0 1012.8 0.0
04/12:30pm 28.0 30.2 20.3 63 5.1 E 9 19 5 10 1013.7 1013.4 0.0
04/12:00pm 30.2 32.1 21.3 59 6.0 N 13 20 7 11 1013.9 1013.6 0.0
04/11:30am 29.4 31.2 21.1 61 5.5 N 13 20 7 11 1014.2 1013.9 0.0
04/11:00am 28.8 31.3 21.8 66 4.7 N 11 19 6 10 1014.4 1014.1 0.0
04/10:30am 27.6 29.2 20.7 66 4.6 N 13 20 7 11 1014.7 1014.4 0.0
04/10:00am 27.1 29.5 21.6 72 3.7 N 11 17 6 9 1014.8 1014.5 0.0
04/09:30am 25.5 26.9 20.3 73 3.4 NNW 13 20 7 11 1014.8 1014.5 0.0
04/09:00am 24.6 27.0 21.5 83 2.1 N 11 17 6 9 1014.4 1014.1 0.0
04/08:30am 22.5 25.4 21.7 95 0.5 N 9 13 5 7 1014.2 1013.9 0.0
04/08:00am 20.7 22.9 20.4 98 0.2 N 9 13 5 7 1013.9 1013.6 0.0
04/07:30am 20.1 22.4 19.8 98 0.2 NNW 7 7 4 4 1013.9 1013.6 0.0
04/07:00am 20.2 22.2 19.9 98 0.2 NW 9 11 5 6 1013.8 1013.5 0.0
04/06:30am 19.4 21.0 19.1 98 0.2 NNW 9 11 5 6 1013.5 1013.2 0.0
04/06:00am 19.2 20.7 18.9 98 0.2 N 9 11 5 6 1012.9 1012.7 0.0
04/05:30am 19.7 21.7 19.2 97 0.3 NNW 7 9 4 5 1012.7 1012.5 0.0
04/05:00am 20.1 21.9 19.6 97 0.3 N 9 11 5 6 1012.8 1012.6 0.0
04/04:30am 20.8 23.5 20.3 97 0.3 NW 6 9 3 5 1012.8 1012.6 0.0
04/04:00am 20.6 22.7 20.1 97 0.3 NW 9 11 5 6 1013.0 1012.8 0.0
04/03:30am 20.2 21.8 19.9 98 0.2 WNW 11 13 6 7 1013.5 1013.2 0.0
04/03:00am 19.6 21.7 19.3 98 0.2 NNW 7 9 4 5 1013.7 1013.4 0.0
04/02:30am 19.6 21.3 19.3 98 0.2 N 9 11 5 6 1014.2 1013.9 0.0
04/02:00am 19.8 21.5 19.3 97 0.3 N 9 11 5 6 1014.4 1014.1 0.0
04/01:30am 20.3 22.2 19.8 97 0.3 N 9 11 5 6 1014.9 1014.6 0.0
04/01:00am 20.7 23.1 20.0 96 0.4 N 7 9 4 5 1015.3 1015.0 0.0
04/12:30am 20.9 23.4 19.9 94 0.6 N 6 7 3 4 1015.5 1015.2 0.0
04/12:00am 21.1 23.5 19.7 92 0.9 N 6 7 3 4 1015.8 1015.5 0.0
 
Date/Time
EDT
Temp
°C
App
Temp
°C
Dew
Point
Rel
Hum
%
Delta-T
°C
Wind Press
QNH
hPa
Press
MSL
hPa
Rain
since 9 am
mm
Dir
 
Spd
km/h
Gust
km/h
Spd
kts
Gust
kts
03/11:30pm 21.3 23.5 19.2 88 1.3 NNE 6 7 3 4 1015.9 1015.6 0.0
03/11:00pm 22.2 24.3 19.4 84 1.8 E 7 11 4 6 1016.1 1015.8 0.0
03/10:30pm 22.1 23.8 19.3 84 1.8 ESE 9 11 5 6 1016.2 1015.9 0.0
03/10:00pm 22.4 24.2 19.6 84 1.8 ESE 9 15 5 8 1016.0 1015.7 0.0
03/09:30pm 22.4 23.7 19.4 83 1.9 ESE 11 15 6 8 1016.0 1015.7 0.0
03/09:00pm 22.5 24.2 19.3 82 2.0 ESE 9 13 5 7 1015.8 1015.5 0.0
03/08:30pm 22.6 23.9 19.4 82 2.0 SE 11 15 6 8 1015.3 1015.0 0.0
03/08:00pm 22.5 23.6 18.9 80 2.3 ESE 11 17 6 9 1014.9 1014.6 0.0
03/07:30pm 22.6 24.1 18.8 79 2.4 ESE 9 15 5 8 1014.7 1014.4 0.0
03/07:00pm 23.3 24.5 18.2 73 3.2 ESE 9 13 5 7 1014.5 1014.2 0.0
03/06:30pm 24.1 24.9 18.1 69 3.8 ESE 11 15 6 8 1014.2 1013.9 0.0
03/06:00pm 24.8 25.1 17.8 65 4.4 ESE 13 19 7 10 1014.0 1013.7 0.0
03/05:30pm 25.3 24.9 17.2 61 5.0 ESE 15 19 8 10 1013.8 1013.5 0.0
03/05:00pm 25.9 25.8 17.8 61 5.1 SE 15 20 8 11 1013.8 1013.5 0.0
03/04:30pm 26.0 26.2 17.6 60 5.3 SE 13 19 7 10 1013.9 1013.6 0.0
03/04:00pm 26.3 26.2 17.9 60 5.3 ESE 15 20 8 11 1013.9 1013.6 0.0
03/03:30pm 26.4 25.8 17.5 58 5.6 SE 17 22 9 12 1014.2 1013.9 0.0
03/03:00pm 26.7 26.7 18.0 59 5.5 SE 15 22 8 12 1014.4 1014.1 0.0
03/02:30pm 27.0 27.2 18.6 60 5.4 SE 15 20 8 11 1014.8 1014.5 0.0
03/02:00pm 27.1 28.4 20.9 69 4.1 SSE 15 20 8 11 1015.1 1014.8 0.0
03/01:30pm 27.0 27.6 20.3 66 4.4 SSE 17 20 9 11 1015.4 1015.1 0.0
03/01:00pm 26.2 27.0 19.8 68 4.2 SSE 15 20 8 11 1015.6 1015.3 0.0
03/12:30pm 26.6 28.0 20.4 69 4.1 SSE 13 19 7 10 1015.9 1015.6 0.0
03/12:00pm 26.8 28.7 21.3 72 3.7 SSE 13 20 7 11 1016.4 1016.1 0.0
03/11:30am 25.9 26.9 19.5 68 4.1 S 13 17 7 9 1016.6 1016.3 0.0
03/11:00am 26.0 27.6 20.8 73 3.4 S 13 17 7 9 1016.6 1016.3 0.0
03/10:30am 25.7 28.0 22.0 80 2.5 S 13 19 7 10 1016.6 1016.3 0.0
03/10:00am 25.3 27.1 21.8 81 2.3 S 15 19 8 10 1016.5 1016.2 0.0
03/09:30am 23.8 26.9 22.1 90 1.1 SSW 9 15 5 8 1016.4 1016.1 0.0
03/09:00am 22.9 26.1 22.4 97 0.3 SSW 9 15 5 8 1016.2 1015.9 3.8
03/08:30am 22.3 24.9 22.0 98 0.2 SW 11 17 6 9 1016.1 1015.8 3.8
03/08:00am 20.9 22.9 20.7 99 0.1 WSW 11 17 6 9 1015.9 1015.6 3.8
03/07:30am 20.1 21.7 19.9 99 0.1 W 11 15 6 8 1015.8 1015.5 3.8
03/07:00am 19.8 21.2 19.6 99 0.1 WSW 11 15 6 8 1015.4 1015.1 3.8
03/06:30am 19.8 20.9 19.6 99 0.1 WSW 13 17 7 9 1015.0 1014.7 3.8
03/06:00am 19.8 20.9 19.6 99 0.1 WSW 13 19 7 10 1014.8 1014.5 3.8
03/05:30am 19.8 21.2 19.6 99 0.1 WSW 11 17 6 9 1014.8 1014.5 3.8
03/05:00am 19.9 21.1 19.9 100 0.0 WSW 13 19 7 10 1014.7 1014.4 3.8
03/04:30am 20.1 21.4 20.1 100 0.0 WSW 13 19 7 10 1014.7 1014.4 3.8
03/04:00am 20.1 21.4 20.1 100 0.0 WSW 13 19 7 10 1014.7 1014.4 3.8
03/03:30am 20.0 21.2 19.8 99 0.1 WSW 13 17 7 9 1014.8 1014.5 3.8
03/03:00am 20.3 21.2 20.1 99 0.1 WSW 15 20 8 11 1015.2 1014.9 3.8
03/02:30am 20.3 21.6 20.1 99 0.1 WSW 13 17 7 9 1015.5 1015.2 3.8
03/02:00am 20.4 21.4 20.2 99 0.1 WSW 15 20 8 11 1015.9 1015.6 3.6
03/01:30am 20.6 22.0 20.4 99 0.1 W 13 19 7 10 1016.1 1015.8 3.6
03/01:00am 21.2 24.0 20.9 98 0.2 SW 7 13 4 7 1016.1 1015.8 3.6
03/12:30am 22.4 24.3 22.1 98 0.2 S 15 22 8 12 1016.3 1016.0 3.6
03/12:00am 21.9 23.2 21.6 98 0.2 S 17 20 9 11 1016.4 1016.1 3.6
 
Date/Time
EDT
Temp
°C
App
Temp
°C
Dew
Point
Rel
Hum
%
Delta-T
°C
Wind Press
QNH
hPa
Press
MSL
hPa
Rain
since 9 am
mm
Dir
 
Spd
km/h
Gust
km/h
Spd
kts
Gust
kts
02/11:30pm 22.0 23.3 21.7 98 0.2 SSE 17 20 9 11 1016.5 1016.2 3.6
02/11:00pm 22.3 23.9 22.1 99 0.1 SSE 17 24 9 13 1016.5 1016.2 3.6
02/10:30pm 22.2 23.3 22.0 99 0.1 S 19 24 10 13 1016.5 1016.2 3.6
02/10:00pm 22.1 23.5 21.9 99 0.1 S 17 26 9 14 1016.6 1016.3 3.6
02/09:30pm 21.8 24.6 21.6 99 0.1 SW 9 26 5 14 1016.4 1016.1 3.6
02/09:00pm 21.9 24.4 21.7 99 0.1 W 11 17 6 9 1015.9 1015.6 1.4
02/08:30pm 21.9 24.0 21.7 99 0.1 SW 13 20 7 11 1015.6 1015.3 0.2
02/08:00pm 21.9 24.4 21.7 99 0.1 SW 11 15 6 8 1015.3 1015.0 0.2
02/07:30pm 21.9 24.0 21.7 99 0.1 SW 13 20 7 11 1014.9 1014.6 0.2
02/07:00pm 22.3 23.8 22.0 98 0.2 SW 17 22 9 12 1014.8 1014.5 0.0
02/06:30pm 22.6 24.6 22.3 98 0.2 SW 15 20 8 11 1014.5 1014.2 0.0
02/06:00pm 23.3 25.6 22.8 97 0.3 S 15 28 8 15 1014.2 1013.9 0.0
02/05:30pm 24.1 26.5 23.6 97 0.3 SSW 17 28 9 15 1013.9 1013.6 0.0
02/05:00pm 22.4 22.6 22.1 98 0.2 SSW 24 35 13 19 1014.0 1013.7 0.0
02/04:30pm 23.4 21.6 21.5 89 1.3 SSW 33 48 18 26 1013.7 1013.4 0.0
02/04:00pm 23.6 21.7 22.0 91 1.1 SSW 35 50 19 27 1013.5 1013.2 0.0
02/03:30pm 23.5 21.7 21.6 89 1.3 SSW 33 48 18 26 1013.7 1013.4 0.0
02/03:00pm 24.4 21.7 21.3 83 2.0 SSW 37 52 20 28 1013.9 1013.6 0.0
02/02:30pm 25.8 23.1 21.9 79 2.6 SSW 39 56 21 30 1014.0 1013.7 0.0
02/02:15pm 26.0 23.6 21.9 78 2.7 SSW 37 57 20 31 1014.2 1013.9 0.0
02/02:00pm 26.3 24.8 22.8 81 2.4 SSW 35 48 19 26 1014.2 1013.9 0.0
02/01:31pm 25.2 24.1 22.9 87 1.6 SSW 33 52 18 28 1014.5 1014.2 0.0
02/01:30pm 25.1 23.5 22.6 86 1.7 SSW 35 52 19 28 1014.5 1014.2 0.0
02/01:00pm 25.3 23.3 21.8 81 2.3 SSW 35 50 19 27 1014.8 1014.5 0.0
02/12:30pm 26.3 25.2 23.4 84 2.0 SSW 35 46 19 25 1014.9 1014.6 0.0
02/12:00pm 25.7 24.5 22.6 83 2.1 SSW 33 48 18 26 1014.9 1014.6 0.0
02/11:30am 25.9 24.9 23.0 84 2.0 SSW 33 46 18 25 1015.1 1014.8 0.0
02/11:00am 25.5 24.1 23.0 86 1.7 SSW 35 48 19 26 1015.1 1014.8 0.0
02/10:43am 25.3 24.1 22.6 85 1.8 SSW 33 52 18 28 1015.1 1014.8 0.0
02/10:30am 25.4 24.6 23.1 87 1.6 SSW 32 44 17 24 1015.0 1014.7 0.0
02/10:00am 25.2 25.6 23.8 92 1.0 SSW 28 39 15 21 1014.8 1014.5 0.0
02/09:30am 24.5 25.4 24.0 97 0.3 SSW 26 41 14 22 1014.5 1014.2 0.0
02/09:00am 22.5 23.2 22.2 98 0.2 SSW 22 33 12 18 1014.0 1013.7 2.2
02/08:30am 22.9 23.8 22.6 98 0.2 SSW 22 32 12 17 1013.7 1013.4 2.2
02/08:00am 22.3 23.8 22.0 98 0.2 SSW 17 22 9 12 1013.3 1013.0 2.2
02/07:30am 22.3 23.3 22.1 99 0.1 S 20 33 11 18 1013.0 1012.8 2.2
02/07:00am 21.5 23.4 21.3 99 0.1 SSW 13 15 7 8 1012.8 1012.6 2.2
02/06:30am 21.9 23.7 21.9 100 0.0 SSW 15 20 8 11 1012.6 1012.4 2.2
02/06:00am 21.6 23.2 21.4 99 0.1 SE 15 20 8 11 1012.4 1012.2 2.2
02/05:30am 21.4 21.6 21.4 100 0.0 SSE 22 33 12 18 1011.8 1011.6 2.2
02/05:00am 22.0 21.8 22.0 100 0.0 SSE 26 39 14 21 1011.1 1010.9 2.2
02/04:30am 22.4 22.8 22.4 100 0.0 SSW 24 41 13 22 1010.9 1010.7 2.2
02/04:00am 22.2 23.8 22.2 100 0.0 SW 17 24 9 13 1010.8 1010.6 2.2
02/03:30am 22.1 24.4 22.1 100 0.0 WSW 13 19 7 10 1010.7 1010.5 2.2
02/03:00am 21.9 24.9 21.9 100 0.0 W 9 13 5 7 1010.5 1010.3 2.2
02/02:30am 22.1 24.8 22.1 100 0.0 SW 11 17 6 9 1010.6 1010.4 2.2
02/02:00am 22.1 25.2 22.1 100 0.0 W 9 9 5 5 1010.5 1010.3 2.2
02/01:30am 22.4 25.6 22.4 100 0.0 W 9 13 5 7 1010.7 1010.5 2.2
02/01:00am 22.2 25.7 22.2 100 0.0 WSW 7 11 4 6 1010.9 1010.7 2.2
02/12:30am 22.1 25.2 22.1 100 0.0 WSW 9 11 5 6 1011.0 1010.8 2.2
02/12:00am 21.9 25.3 21.7 99 0.1 NNW 6 9 3 5 1010.7 1010.5 2.2
 
Date/Time
EDT
Temp
°C
App
Temp
°C
Dew
Point
Rel
Hum
%
Delta-T
°C
Wind Press
QNH
hPa
Press
MSL
hPa
Rain
since 9 am
mm
Dir
 
Spd
km/h
Gust
km/h
Spd
kts
Gust
kts
01/11:30pm 22.0 25.4 22.0 100 0.0 N 7 9 4 5 1010.6 1010.4 2.2
01/11:00pm 22.2 24.9 22.2 100 0.0 N 11 17 6 9 1010.5 1010.3 2.2
01/10:30pm 22.3 24.7 22.3 100 0.0 N 13 19 7 10 1010.3 1010.1 2.2
01/10:00pm 22.3 24.7 22.3 100 0.0 N 13 17 7 9 1010.2 1010.0 2.0
01/09:30pm 22.4 25.1 22.2 99 0.1 NNE 11 19 6 10 1009.6 1009.3 2.0
01/09:00pm 22.6 25.2 22.6 100 0.0 NNE 13 19 7 10 1009.2 1008.9 2.0
01/08:30pm 22.7 24.0 22.7 100 0.0 N 20 30 11 16 1008.1 1007.8 2.0
01/08:00pm 22.9 24.8 22.7 99 0.1 N 17 28 9 15 1008.1 1007.8 2.0
01/07:30pm 23.0 24.6 22.8 99 0.1 NNE 19 28 10 15 1008.0 1007.7 2.0
01/07:00pm 23.2 25.2 22.9 98 0.2 NNE 17 28 9 15 1008.3 1008.0 1.2
01/06:30pm 24.2 26.4 23.3 95 0.6 NNE 17 26 9 14 1008.1 1007.8 0.0
01/06:00pm 24.6 26.1 22.7 89 1.3 NE 19 30 10 16 1007.7 1007.4 0.0
01/05:30pm 24.9 26.1 22.2 85 1.8 NE 19 30 10 16 1007.4 1007.1 0.0
01/05:00pm 25.7 26.7 21.8 79 2.6 NE 19 37 10 20 1007.4 1007.1 0.0
01/04:30pm 27.1 27.6 20.9 69 4.1 NNE 19 30 10 16 1007.3 1007.0 0.0
01/04:00pm 29.1 30.1 21.8 64 4.9 NNE 19 30 10 16 1007.4 1007.1 0.0
01/03:30pm 28.7 29.0 21.5 65 4.8 NE 22 32 12 17 1007.8 1007.5 0.0
01/03:00pm 29.7 30.5 21.4 61 5.6 NE 19 32 10 17 1008.2 1007.9 0.0
01/02:30pm 30.0 31.4 21.9 62 5.5 NE 17 28 9 15 1008.5 1008.2 0.0
01/02:00pm 29.5 30.7 21.4 61 5.4 NE 17 26 9 14 1008.9 1008.6 0.0

Other Formats:

Comma delimited format used in spreadsheet applications
http://www.bom.gov.au/fwo/IDN60801/IDN60801.94598.axf

JavaScript Object Notation format (JSON) in row-major order
http://www.bom.gov.au/fwo/IDN60801/IDN60801.94598.json